Time,TemperatureF,DewpointF,PressureIn,WindDirection,WindDirectionDegrees,WindSpeedMPH,WindSpeedGustMPH,Humidity,HourlyPrecipIn,Conditions,Clouds,dailyrainin,SoftwareType,DateUTC
2013-12-13 00:12:00,17.7,7.0,30.01,West,259,7.0,11.0,62,0.00,,,0.00,weatherlink.com 1.10,2013-12-13 05:12:00,
2013-12-13 00:27:00,17.8,7.0,30.00,WSW,256,7.0,13.0,62,0.00,,,0.00,weatherlink.com 1.10,2013-12-13 05:27:00,
2013-12-13 00:42:00,18.1,7.0,29.99,SW,226,8.0,11.0,62,0.00,,,0.00,weatherlink.com 1.10,2013-12-13 05:42:00,
2013-12-13 00:57:00,18.4,7.0,29.99,WSW,250,10.0,18.0,62,0.00,,,0.00,weatherlink.com 1.10,2013-12-13 05:57:00,
2013-12-13 01:12:00,18.6,7.0,29.98,WSW,246,8.0,16.0,62,0.00,,,0.00,weatherlink.com 1.10,2013-12-13 06:12:00,
2013-12-13 01:27:00,18.8,8.0,29.98,West,267,5.0,16.0,62,0.00,,,0.00,weatherlink.com 1.10,2013-12-13 06:27:00,
2013-12-13 01:42:00,18.6,7.0,29.97,WSW,249,6.0,13.0,62,0.00,,,0.00,weatherlink.com 1.10,2013-12-13 06:42:00,
2013-12-13 01:57:00,18.4,8.0,29.97,SW,234,7.0,11.0,63,0.00,,,0.00,weatherlink.com 1.10,2013-12-13 06:57:00,
2013-12-13 02:12:00,18.6,8.0,29.96,WNW,283,9.0,15.0,63,0.00,,,0.00,weatherlink.com 1.10,2013-12-13 07:12:00,
2013-12-13 02:27:00,18.7,8.0,29.96,WSW,257,9.0,15.0,63,0.00,,,0.00,weatherlink.com 1.10,2013-12-13 07:27:00,
2013-12-13 02:42:00,18.6,8.0,29.95,SW,223,8.0,15.0,64,0.00,,,0.00,weatherlink.com 1.10,2013-12-13 07:42:00,
2013-12-13 02:57:00,18.7,9.0,29.95,SW,223,10.0,16.0,65,0.00,,,0.00,weatherlink.com 1.10,2013-12-13 07:57:00,
2013-12-13 03:12:00,18.2,9.0,29.95,WSW,249,9.0,18.0,66,0.00,,,0.00,weatherlink.com 1.10,2013-12-13 08:12:00,
2013-12-13 03:27:00,17.9,8.0,29.94,SW,221,8.0,16.0,66,0.00,,,0.00,weatherlink.com 1.10,2013-12-13 08:27:00,
2013-12-13 03:42:00,17.6,8.0,29.94,WSW,245,11.0,13.0,67,0.00,,,0.00,weatherlink.com 1.10,2013-12-13 08:42:00,
2013-12-13 03:57:00,17.0,8.0,29.93,WSW,242,9.0,11.0,69,0.00,,,0.00,weatherlink.com 1.10,2013-12-13 08:57:00,
2013-12-13 04:12:00,16.7,8.0,29.92,WSW,258,6.0,13.0,69,0.00,,,0.00,weatherlink.com 1.10,2013-12-13 09:12:00,
2013-12-13 04:27:00,16.4,8.0,29.92,SW,230,5.0,9.0,70,0.00,,,0.00,weatherlink.com 1.10,2013-12-13 09:27:00,
2013-12-13 04:57:00,15.9,8.0,29.91,WSW,242,7.0,10.0,71,0.00,,,0.00,weatherlink.com 1.10,2013-12-13 09:57:00,
2013-12-13 05:12:00,16.3,9.0,29.91,WSW,249,10.0,18.0,72,0.00,,,0.00,weatherlink.com 1.10,2013-12-13 10:12:00,
2013-12-13 05:27:00,16.3,9.0,29.91,SW,236,9.0,18.0,72,0.00,,,0.00,weatherlink.com 1.10,2013-12-13 10:27:00,
2013-12-13 05:42:00,16.3,9.0,29.91,WSW,248,8.0,12.0,72,0.00,,,0.00,weatherlink.com 1.10,2013-12-13 10:42:00,
2013-12-13 05:57:00,16.3,9.0,29.91,WSW,248,8.0,12.0,72,0.00,,,0.00,weatherlink.com 1.10,2013-12-13 10:57:00,
2013-12-13 06:12:00,16.3,9.0,29.92,WSW,244,6.0,14.0,72,0.00,,,0.00,weatherlink.com 1.10,2013-12-13 11:12:00,
2013-12-13 06:27:00,16.6,9.0,29.92,WSW,241,8.0,18.0,72,0.00,,,0.00,weatherlink.com 1.10,2013-12-13 11:27:00,
2013-12-13 06:42:00,16.7,9.0,29.92,WSW,238,6.0,21.0,72,0.00,,,0.00,weatherlink.com 1.10,2013-12-13 11:42:00,
2013-12-13 06:57:00,16.8,9.0,29.92,WSW,245,10.0,19.0,72,0.00,,,0.00,weatherlink.com 1.10,2013-12-13 11:57:00,
2013-12-13 07:13:00,18.1,11.0,29.93,West,276,14.0,20.0,72,0.00,,,0.00,weatherlink.com 1.10,2013-12-13 12:13:00,
2013-12-13 07:28:00,18.2,10.0,29.93,West,279,13.0,19.0,71,0.00,,,0.00,weatherlink.com 1.10,2013-12-13 12:28:00,
2013-12-13 07:43:00,18.4,10.0,29.94,WSW,249,9.0,23.0,71,0.00,,,0.00,weatherlink.com 1.10,2013-12-13 12:43:00,
2013-12-13 07:58:00,18.6,11.0,29.95,West,263,13.0,22.0,71,0.00,,,0.00,weatherlink.com 1.10,2013-12-13 12:58:00,
2013-12-13 08:13:00,18.7,11.0,29.95,WNW,288,12.0,23.0,71,0.00,,,0.00,weatherlink.com 1.10,2013-12-13 13:13:00,
2013-12-13 08:28:00,19.0,11.0,29.96,West,270,15.0,25.0,70,0.00,,,0.00,weatherlink.com 1.10,2013-12-13 13:28:00,
2013-12-13 08:43:00,19.0,11.0,29.97,WSW,246,15.0,22.0,72,0.00,,,0.00,weatherlink.com 1.10,2013-12-13 13:43:00,
2013-12-13 08:58:00,19.7,11.0,29.96,West,273,13.0,20.0,70,0.00,,,0.00,weatherlink.com 1.10,2013-12-13 13:58:00,
2013-12-13 09:13:00,20.2,10.0,29.97,WNW,287,10.0,23.0,66,0.00,,,0.00,weatherlink.com 1.10,2013-12-13 14:13:00,
2013-12-13 09:28:00,20.7,10.0,29.98,West,281,12.0,21.0,64,0.00,,,0.00,weatherlink.com 1.10,2013-12-13 14:28:00,
2013-12-13 09:43:00,21.4,12.0,29.98,SW,227,12.0,22.0,66,0.00,,,0.00,weatherlink.com 1.10,2013-12-13 14:43:00,
2013-12-13 09:58:00,21.9,10.0,29.98,West,276,19.0,23.0,60,0.00,,,0.00,weatherlink.com 1.10,2013-12-13 14:58:00,
2013-12-13 10:13:00,22.2,9.0,29.98,WNW,287,14.0,28.0,56,0.00,,,0.00,weatherlink.com 1.10,2013-12-13 15:13:00,
2013-12-13 10:28:00,22.3,9.0,29.98,WNW,284,14.0,28.0,58,0.00,,,0.00,weatherlink.com 1.10,2013-12-13 15:28:00,
2013-12-13 10:43:00,22.4,8.0,29.97,WNW,290,15.0,31.0,53,0.00,,,0.00,weatherlink.com 1.10,2013-12-13 15:43:00,
2013-12-13 10:58:00,22.4,8.0,29.97,WNW,291,23.0,36.0,55,0.00,,,0.00,weatherlink.com 1.10,2013-12-13 15:58:00,
2013-12-13 11:13:00,22.4,8.0,29.97,WNW,298,18.0,37.0,54,0.00,,,0.00,weatherlink.com 1.10,2013-12-13 16:13:00,
2013-12-13 11:43:00,22.3,9.0,29.97,West,279,22.0,30.0,58,0.00,,,0.00,weatherlink.com 1.10,2013-12-13 16:43:00,
2013-12-13 11:58:00,22.7,9.0,29.96,WNW,284,18.0,31.0,56,0.00,,,0.00,weatherlink.com 1.10,2013-12-13 16:58:00,
2013-12-13 12:13:00,23.3,9.0,29.97,WNW,300,16.0,32.0,55,0.00,,,0.00,weatherlink.com 1.10,2013-12-13 17:13:00,
2013-12-13 12:28:00,22.9,6.0,29.97,WNW,286,25.0,36.0,49,0.00,,,0.00,weatherlink.com 1.10,2013-12-13 17:28:00,
2013-12-13 12:43:00,23.2,5.0,29.97,West,278,24.0,29.0,45,0.00,,,0.00,weatherlink.com 1.10,2013-12-13 17:43:00,
2013-12-13 12:58:00,22.5,2.0,29.97,WNW,297,13.0,34.0,42,0.00,,,0.00,weatherlink.com 1.10,2013-12-13 17:58:00,
2013-12-13 13:13:00,22.5,3.0,29.97,West,268,18.0,33.0,43,0.00,,,0.00,weatherlink.com 1.10,2013-12-13 18:13:00,
2013-12-13 13:28:00,22.7,3.0,29.98,WNW,282,16.0,32.0,43,0.00,,,0.00,weatherlink.com 1.10,2013-12-13 18:28:00,
2013-12-13 13:43:00,23.5,3.0,29.98,West,268,18.0,28.0,42,0.00,,,0.00,weatherlink.com 1.10,2013-12-13 18:43:00,
2013-12-13 13:58:00,22.7,1.0,29.99,WSW,256,29.0,34.0,39,0.00,,,0.00,weatherlink.com 1.10,2013-12-13 18:58:00,
2013-12-13 14:13:00,22.4,0.0,30.00,WSW,254,20.0,30.0,38,0.00,,,0.00,weatherlink.com 1.10,2013-12-13 19:13:00,
2013-12-13 14:28:00,22.4,0.0,30.00,West,280,19.0,32.0,37,0.00,,,0.00,weatherlink.com 1.10,2013-12-13 19:28:00,
2013-12-13 14:43:00,22.3,0.0,30.02,West,263,18.0,28.0,38,0.00,,,0.00,weatherlink.com 1.10,2013-12-13 19:43:00,
2013-12-13 14:58:00,21.5,-1.0,30.03,West,271,15.0,33.0,37,0.00,,,0.00,weatherlink.com 1.10,2013-12-13 19:58:00,
2013-12-13 15:14:00,21.1,0.0,30.04,WSW,252,15.0,31.0,40,0.00,,,0.00,weatherlink.com 1.10,2013-12-13 20:14:00,
2013-12-13 15:29:00,20.8,0.0,30.05,West,260,8.0,25.0,41,0.00,,,0.00,weatherlink.com 1.10,2013-12-13 20:29:00,
2013-12-13 15:44:00,20.2,1.0,30.07,WNW,291,6.0,18.0,44,0.00,,,0.00,weatherlink.com 1.10,2013-12-13 20:44:00,
2013-12-13 15:59:00,19.6,2.0,30.09,WNW,284,9.0,21.0,46,0.00,,,0.00,weatherlink.com 1.10,2013-12-13 20:59:00,
2013-12-13 16:14:00,19.0,0.0,30.10,West,269,4.0,15.0,44,0.00,,,0.00,weatherlink.com 1.10,2013-12-13 21:14:00,
2013-12-13 16:29:00,18.4,1.0,30.11,WNW,284,11.0,21.0,46,0.00,,,0.00,weatherlink.com 1.10,2013-12-13 21:29:00,
2013-12-13 16:44:00,17.8,0.0,30.12,West,274,10.0,16.0,45,0.00,,,0.00,weatherlink.com 1.10,2013-12-13 21:44:00,
2013-12-13 16:59:00,17.3,-1.0,30.14,West,280,5.0,20.0,44,0.00,,,0.00,weatherlink.com 1.10,2013-12-13 21:59:00,
2013-12-13 17:14:00,16.7,-2.0,30.15,WNW,297,13.0,19.0,43,0.00,,,0.00,weatherlink.com 1.10,2013-12-13 22:14:00,
2013-12-13 17:29:00,16.1,-2.0,30.16,WNW,282,10.0,16.0,45,0.00,,,0.00,weatherlink.com 1.10,2013-12-13 22:29:00,
2013-12-13 17:44:00,15.5,-2.0,30.18,WNW,291,8.0,14.0,47,0.00,,,0.00,weatherlink.com 1.10,2013-12-13 22:44:00,
2013-12-13 17:59:00,15.1,-2.0,30.18,WNW,288,10.0,15.0,48,0.00,,,0.00,weatherlink.com 1.10,2013-12-13 22:59:00,
2013-12-13 18:14:00,14.5,-2.0,30.20,WNW,286,13.0,21.0,49,0.00,,,0.00,weatherlink.com 1.10,2013-12-13 23:14:00,
2013-12-13 18:30:00,13.9,-2.0,30.21,WNW,294,10.0,20.0,49,0.00,,,0.00,weatherlink.com 1.10,2013-12-13 23:30:00,
2013-12-13 18:45:00,13.3,-2.0,30.22,WNW,291,7.0,20.0,50,0.00,,,0.00,weatherlink.com 1.10,2013-12-13 23:45:00,
2013-12-13 19:00:00,12.9,-3.0,30.24,NW,307,11.0,20.0,49,0.00,,,0.00,weatherlink.com 1.10,2013-12-14 00:00:00,
2013-12-13 19:15:00,12.6,-4.0,30.25,NW,306,14.0,21.0,48,0.00,,,0.00,weatherlink.com 1.10,2013-12-14 00:15:00,
2013-12-13 19:30:00,12.1,-3.0,30.26,West,277,12.0,18.0,50,0.00,,,0.00,weatherlink.com 1.10,2013-12-14 00:30:00,
2013-12-13 19:45:00,11.5,-4.0,30.28,WNW,298,10.0,18.0,50,0.00,,,0.00,weatherlink.com 1.10,2013-12-14 00:45:00,
2013-12-13 20:00:00,11.1,-4.0,30.29,NW,319,9.0,13.0,51,0.00,,,0.00,weatherlink.com 1.10,2013-12-14 01:00:00,
2013-12-13 20:15:00,10.7,-4.0,30.30,WNW,299,8.0,15.0,52,0.00,,,0.00,weatherlink.com 1.10,2013-12-14 01:15:00,
2013-12-13 20:30:00,10.2,-4.0,30.31,NW,313,9.0,14.0,52,0.00,,,0.00,weatherlink.com 1.10,2013-12-14 01:30:00,
2013-12-13 20:45:00,10.0,-5.0,30.32,WNW,286,14.0,20.0,51,0.00,,,0.00,weatherlink.com 1.10,2013-12-14 01:45:00,
2013-12-13 21:00:00,9.6,-5.0,30.33,WNW,298,7.0,19.0,52,0.00,,,0.00,weatherlink.com 1.10,2013-12-14 02:00:00,
2013-12-13 21:15:00,9.2,-5.0,30.32,WNW,290,9.0,18.0,53,0.00,,,0.00,weatherlink.com 1.10,2013-12-14 02:15:00,
2013-12-13 21:30:00,8.9,-5.0,30.33,WNW,284,16.0,25.0,53,0.00,,,0.00,weatherlink.com 1.10,2013-12-14 02:30:00,
2013-12-13 21:45:00,8.7,-5.0,30.34,NW,307,12.0,22.0,53,0.00,,,0.00,weatherlink.com 1.10,2013-12-14 02:45:00,
2013-12-13 22:01:00,8.2,-5.0,30.35,West,279,8.0,19.0,54,0.00,,,0.00,weatherlink.com 1.10,2013-12-14 03:01:00,
2013-12-13 22:16:00,7.8,-5.0,30.36,West,277,10.0,14.0,55,0.00,,,0.00,weatherlink.com 1.10,2013-12-14 03:16:00,
2013-12-13 22:31:00,7.4,-5.0,30.37,West,277,5.0,12.0,57,0.00,,,0.00,weatherlink.com 1.10,2013-12-14 03:31:00,
2013-12-13 22:46:00,7.1,-5.0,30.38,NW,307,5.0,16.0,57,0.00,,,0.00,weatherlink.com 1.10,2013-12-14 03:46:00,
2013-12-13 23:01:00,6.9,-6.0,30.38,WNW,294,7.0,18.0,56,0.00,,,0.00,weatherlink.com 1.10,2013-12-14 04:01:00,
2013-12-13 23:16:00,6.5,-6.0,30.39,WNW,302,14.0,14.0,57,0.00,,,0.00,weatherlink.com 1.10,2013-12-14 04:16:00,
2013-12-13 23:31:00,6.3,-6.0,30.39,NW,315,11.0,16.0,57,0.00,,,0.00,weatherlink.com 1.10,2013-12-14 04:31:00,
2013-12-13 23:46:00,5.7,-6.0,30.39,WNW,284,4.0,12.0,59,0.00,,,0.00,weatherlink.com 1.10,2013-12-14 04:46:00,